EZY91PG LFMN-EGGW
Flight info
| Callsign | EZY91PG |
|---|---|
| Flight time | N/A |
| Altitude | 36000 |
| Route | BADOD DCT NEDRU DCT LTP DCT BULOL DCT IDAVO DCT BAGBI DCT SIZZA DCT LAULY DCT BRY DCT CLM DCT KOPOR DCT SOSUN DCT SUBIP UM733 UNDUG |
| Aircraft | A320/M-SDE2E3FGHIJ1RWXYZ/LB1 |
Departure
| Time | 2026-05-08 07:11 |
|---|---|
| Airport | Nice-Côte d'Azur Airport (LFMN) |
Arrival
| Time | N/A |
|---|---|
| Airport | London Luton Airport (EGGW) |
| Time | Latitude | Longitude | Altitude | Speed | Heading |
|---|---|---|---|---|---|
| 2026-05-08 06:36 | 43.65815 | 7.20532 | 21 ft | 0 kts | 315° |
| 2026-05-08 07:00 | 43.65811 | 7.20536 | 22 ft | 3 kts | 314° |
| 2026-05-08 07:00 | 43.65794 | 7.20564 | 21 ft | 4 kts | 306° |
| 2026-05-08 07:01 | 43.65779 | 7.20595 | 21 ft | 4 kts | 294° |
| 2026-05-08 07:01 | 43.65772 | 7.20630 | 23 ft | 4 kts | 269° |
| 2026-05-08 07:01 | 43.65777 | 7.20657 | 21 ft | 1 kts | 225° |
| 2026-05-08 07:03 | 43.65776 | 7.20656 | 21 ft | 2 kts | 225° |
| 2026-05-08 07:04 | 43.65744 | 7.20610 | 21 ft | 10 kts | 226° |
| 2026-05-08 07:04 | 43.65685 | 7.20596 | 22 ft | 9 kts | 149° |
| 2026-05-08 07:04 | 43.65645 | 7.20649 | 21 ft | 7 kts | 135° |
| 2026-05-08 07:04 | 43.65602 | 7.20675 | 22 ft | 6 kts | 170° |
| 2026-05-08 07:05 | 43.65555 | 7.20686 | 20 ft | 11 kts | 171° |
| 2026-05-08 07:05 | 43.65434 | 7.20712 | 20 ft | 20 kts | 171° |
| 2026-05-08 07:05 | 43.65297 | 7.20738 | 20 ft | 19 kts | 186° |
| 2026-05-08 07:05 | 43.65190 | 7.20634 | 23 ft | 19 kts | 226° |
| 2026-05-08 07:06 | 43.65091 | 7.20498 | 23 ft | 20 kts | 230° |
| 2026-05-08 07:06 | 43.64989 | 7.20358 | 21 ft | 21 kts | 225° |
| 2026-05-08 07:06 | 43.64920 | 7.20262 | 21 ft | 17 kts | 225° |
| 2026-05-08 07:06 | 43.64837 | 7.20224 | 23 ft | 11 kts | 154° |
| 2026-05-08 07:07 | 43.64814 | 7.20252 | 22 ft | 0 kts | 134° |
| 2026-05-08 07:09 | 43.64804 | 7.20266 | 24 ft | 6 kts | 134° |
| 2026-05-08 07:09 | 43.64767 | 7.20330 | 24 ft | 11 kts | 110° |
| 2026-05-08 07:10 | 43.64809 | 7.20435 | 25 ft | 15 kts | 45° |
| 2026-05-08 07:10 | 43.64977 | 7.20664 | 23 ft | 67 kts | 45° |
| 2026-05-08 07:10 | 43.65464 | 7.21335 | 24 ft | 128 kts | 45° |
| 2026-05-08 07:10 | 43.66213 | 7.22359 | 52 ft | 171 kts | 44° |
| 2026-05-08 07:11 | 43.67055 | 7.23522 | 671 ft | 172 kts | 44° |
| 2026-05-08 07:11 | 43.67657 | 7.24986 | 1308 ft | 183 kts | 74° |
| 2026-05-08 07:11 | 43.67619 | 7.26804 | 1767 ft | 202 kts | 106° |
| 2026-05-08 07:11 | 43.66840 | 7.28519 | 2148 ft | 223 kts | 136° |
| 2026-05-08 07:12 | 43.65540 | 7.29753 | 2864 ft | 228 kts | 149° |
| 2026-05-08 07:12 | 43.64167 | 7.30859 | 3739 ft | 228 kts | 148° |
| 2026-05-08 07:12 | 43.62776 | 7.31909 | 4553 ft | 230 kts | 160° |
| 2026-05-08 07:12 | 43.61186 | 7.32107 | 5307 ft | 232 kts | 187° |
| 2026-05-08 07:13 | 43.59631 | 7.31467 | 6091 ft | 236 kts | 207° |
| 2026-05-08 07:13 | 43.58231 | 7.30291 | 6887 ft | 236 kts | 211° |
| 2026-05-08 07:13 | 43.56823 | 7.29090 | 7630 ft | 239 kts | 211° |
| 2026-05-08 07:13 | 43.55571 | 7.27621 | 8319 ft | 243 kts | 235° |
| 2026-05-08 07:14 | 43.54959 | 7.25453 | 9023 ft | 247 kts | 266° |
| 2026-05-08 07:14 | 43.55224 | 7.23126 | 9697 ft | 249 kts | 296° |
| 2026-05-08 07:14 | 43.56206 | 7.21157 | 10400 ft | 250 kts | 309° |
| 2026-05-08 07:14 | 43.57290 | 7.19266 | 11135 ft | 252 kts | 309° |
| 2026-05-08 07:15 | 43.58384 | 7.17356 | 11826 ft | 255 kts | 308° |
| 2026-05-08 07:15 | 43.59484 | 7.15432 | 12516 ft | 257 kts | 308° |
| 2026-05-08 07:15 | 43.60592 | 7.13488 | 13194 ft | 259 kts | 309° |
| 2026-05-08 07:15 | 43.61895 | 7.11712 | 13652 ft | 273 kts | 319° |
| 2026-05-08 07:16 | 43.63414 | 7.09964 | 13839 ft | 296 kts | 320° |
| 2026-05-08 07:16 | 43.65068 | 7.08087 | 14010 ft | 319 kts | 320° |
| 2026-05-08 07:16 | 43.66846 | 7.06078 | 14140 ft | 341 kts | 320° |
| 2026-05-08 07:16 | 43.68713 | 7.03964 | 14538 ft | 352 kts | 320° |
| 2026-05-08 07:17 | 43.70621 | 7.01795 | 15123 ft | 357 kts | 320° |
| 2026-05-08 07:17 | 43.72548 | 6.99602 | 15755 ft | 360 kts | 320° |
| 2026-05-08 07:17 | 43.74463 | 6.97412 | 16381 ft | 363 kts | 319° |
| 2026-05-08 07:17 | 43.76413 | 6.95174 | 16995 ft | 366 kts | 319° |
| 2026-05-08 07:18 | 43.78385 | 6.92908 | 17604 ft | 369 kts | 319° |
| 2026-05-08 07:18 | 43.80365 | 6.90632 | 18204 ft | 372 kts | 319° |
| 2026-05-08 07:18 | 43.82360 | 6.88337 | 18760 ft | 375 kts | 319° |
| 2026-05-08 07:18 | 43.84375 | 6.86017 | 19309 ft | 378 kts | 319° |
| 2026-05-08 07:19 | 43.86398 | 6.83683 | 19851 ft | 380 kts | 318° |
| 2026-05-08 07:19 | 43.88442 | 6.81322 | 20367 ft | 383 kts | 318° |
| 2026-05-08 07:19 | 43.90508 | 6.78940 | 20878 ft | 386 kts | 318° |
| 2026-05-08 07:19 | 43.92577 | 6.76551 | 21369 ft | 388 kts | 318° |
| 2026-05-08 07:20 | 43.94746 | 6.74286 | 21837 ft | 393 kts | 326° |
| 2026-05-08 07:20 | 43.97089 | 6.72398 | 22304 ft | 396 kts | 328° |
| 2026-05-08 07:20 | 43.99481 | 6.70492 | 22781 ft | 398 kts | 328° |
| 2026-05-08 07:20 | 44.01887 | 6.68567 | 23242 ft | 400 kts | 327° |
| 2026-05-08 07:21 | 44.04337 | 6.66601 | 23728 ft | 402 kts | 327° |
| 2026-05-08 07:21 | 44.06735 | 6.64673 | 24151 ft | 404 kts | 327° |
| 2026-05-08 07:21 | 44.09172 | 6.62713 | 24560 ft | 407 kts | 327° |
| 2026-05-08 07:21 | 44.11636 | 6.60727 | 24924 ft | 410 kts | 327° |
| 2026-05-08 07:22 | 44.14111 | 6.58732 | 25301 ft | 413 kts | 327° |
| 2026-05-08 07:22 | 44.16608 | 6.56717 | 25653 ft | 416 kts | 327° |
| 2026-05-08 07:22 | 44.19125 | 6.54683 | 25999 ft | 419 kts | 327° |
| 2026-05-08 07:22 | 44.21660 | 6.52631 | 26341 ft | 422 kts | 327° |
| 2026-05-08 07:23 | 44.24209 | 6.50568 | 26668 ft | 425 kts | 327° |
| 2026-05-08 07:23 | 44.26776 | 6.48493 | 26993 ft | 427 kts | 327° |
| 2026-05-08 07:23 | 44.29360 | 6.46405 | 27316 ft | 431 kts | 326° |
| 2026-05-08 07:23 | 44.31958 | 6.44303 | 27632 ft | 434 kts | 326° |
| 2026-05-08 07:24 | 44.34578 | 6.42174 | 27957 ft | 437 kts | 326° |
| 2026-05-08 07:24 | 44.37214 | 6.40025 | 28287 ft | 439 kts | 326° |
| 2026-05-08 07:24 | 44.39867 | 6.37861 | 28603 ft | 442 kts | 326° |
| 2026-05-08 07:24 | 44.42533 | 6.35685 | 28896 ft | 445 kts | 326° |
| 2026-05-08 07:25 | 44.45217 | 6.33489 | 29176 ft | 448 kts | 326° |
| 2026-05-08 07:25 | 44.47916 | 6.31275 | 29452 ft | 450 kts | 326° |
| 2026-05-08 07:25 | 44.53325 | 6.26842 | 29970 ft | 456 kts | 326° |
| 2026-05-08 07:26 | 44.56070 | 6.24596 | 30231 ft | 457 kts | 325° |
| 2026-05-08 07:26 | 44.58823 | 6.22340 | 30503 ft | 460 kts | 326° |
| 2026-05-08 07:26 | 44.61593 | 6.20069 | 30778 ft | 461 kts | 325° |
| 2026-05-08 07:26 | 44.64363 | 6.17797 | 31069 ft | 462 kts | 325° |
| 2026-05-08 07:27 | 44.67141 | 6.15514 | 31379 ft | 461 kts | 325° |
| 2026-05-08 07:27 | 44.69906 | 6.13237 | 31758 ft | 460 kts | 324° |
| 2026-05-08 07:27 | 44.72661 | 6.10966 | 32133 ft | 458 kts | 325° |
| 2026-05-08 07:27 | 44.75405 | 6.08701 | 32501 ft | 457 kts | 324° |
| 2026-05-08 07:28 | 44.78144 | 6.06433 | 32841 ft | 455 kts | 324° |
| 2026-05-08 07:28 | 44.80840 | 6.04197 | 33193 ft | 454 kts | 324° |
| 2026-05-08 07:28 | 44.83563 | 6.01940 | 33557 ft | 453 kts | 324° |
| 2026-05-08 07:28 | 44.86277 | 5.99687 | 33904 ft | 452 kts | 324° |
| 2026-05-08 07:29 | 44.88980 | 5.97442 | 34236 ft | 450 kts | 324° |
| 2026-05-08 07:29 | 44.91668 | 5.95205 | 34623 ft | 447 kts | 324° |
| 2026-05-08 07:29 | 44.94347 | 5.92976 | 34904 ft | 447 kts | 324° |
| 2026-05-08 07:29 | 44.97024 | 5.90746 | 35202 ft | 446 kts | 324° |
| 2026-05-08 07:30 | 44.99689 | 5.88521 | 35480 ft | 445 kts | 324° |
| 2026-05-08 07:30 | 45.02355 | 5.86289 | 35743 ft | 445 kts | 324° |
| 2026-05-08 07:30 | 45.05025 | 5.84051 | 35972 ft | 445 kts | 324° |
| 2026-05-08 07:31 | 45.10309 | 5.79554 | 36059 ft | 440 kts | 323° |
| 2026-05-08 07:31 | 45.15445 | 5.74860 | 36059 ft | 438 kts | 322° |
| 2026-05-08 07:32 | 45.20526 | 5.70106 | 36055 ft | 437 kts | 322° |
| 2026-05-08 07:32 | 45.25622 | 5.65378 | 36051 ft | 438 kts | 322° |
| 2026-05-08 07:33 | 45.30735 | 5.60688 | 36052 ft | 438 kts | 322° |
| 2026-05-08 07:33 | 45.35852 | 5.55984 | 36059 ft | 438 kts | 322° |
| 2026-05-08 07:34 | 45.40963 | 5.51264 | 36059 ft | 438 kts | 322° |
| 2026-05-08 07:34 | 45.46067 | 5.46536 | 36057 ft | 438 kts | 322° |
| 2026-05-08 07:35 | 45.51398 | 5.42349 | 36060 ft | 443 kts | 332° |
| 2026-05-08 07:35 | 45.57066 | 5.38857 | 36057 ft | 444 kts | 332° |
| 2026-05-08 07:36 | 45.62733 | 5.35346 | 36059 ft | 444 kts | 332° |
| 2026-05-08 07:36 | 45.68404 | 5.31829 | 36058 ft | 444 kts | 332° |
| 2026-05-08 07:37 | 45.74038 | 5.28328 | 36056 ft | 444 kts | 332° |
| 2026-05-08 07:37 | 45.79701 | 5.24791 | 36053 ft | 443 kts | 332° |
| 2026-05-08 07:38 | 45.85356 | 5.21256 | 36059 ft | 443 kts | 332° |
| 2026-05-08 07:38 | 45.91007 | 5.17718 | 36067 ft | 442 kts | 332° |
| 2026-05-08 07:39 | 45.96658 | 5.14165 | 36064 ft | 443 kts | 332° |
| 2026-05-08 07:39 | 46.02305 | 5.10616 | 36069 ft | 443 kts | 332° |
| 2026-05-08 07:40 | 46.07950 | 5.07052 | 36071 ft | 443 kts | 332° |
| 2026-05-08 07:40 | 46.13547 | 5.03494 | 36066 ft | 442 kts | 332° |
| 2026-05-08 07:41 | 46.19175 | 4.99898 | 36069 ft | 442 kts | 332° |
| 2026-05-08 07:41 | 46.24804 | 4.96302 | 36064 ft | 442 kts | 332° |
| 2026-05-08 07:42 | 46.30429 | 4.92703 | 36065 ft | 442 kts | 332° |
| 2026-05-08 07:42 | 46.36057 | 4.89094 | 36068 ft | 442 kts | 332° |
| 2026-05-08 07:43 | 46.41673 | 4.85487 | 36070 ft | 442 kts | 332° |
| 2026-05-08 07:43 | 46.47287 | 4.81869 | 36068 ft | 441 kts | 332° |
| 2026-05-08 07:44 | 46.52902 | 4.78232 | 36068 ft | 441 kts | 332° |
| 2026-05-08 07:44 | 46.58475 | 4.74615 | 36067 ft | 441 kts | 332° |
| 2026-05-08 07:45 | 46.64077 | 4.70988 | 36066 ft | 441 kts | 332° |
| 2026-05-08 07:45 | 46.69682 | 4.67351 | 36062 ft | 441 kts | 332° |
| 2026-05-08 07:46 | 46.75301 | 4.63692 | 36069 ft | 440 kts | 332° |
| 2026-05-08 07:46 | 46.80898 | 4.60037 | 36061 ft | 441 kts | 332° |
| 2026-05-08 07:47 | 46.86498 | 4.56378 | 36058 ft | 441 kts | 332° |
| 2026-05-08 07:47 | 46.92109 | 4.52737 | 36067 ft | 441 kts | 333° |
| 2026-05-08 07:48 | 46.97681 | 4.49116 | 36061 ft | 441 kts | 332° |
| 2026-05-08 07:48 | 47.03291 | 4.45441 | 36063 ft | 441 kts | 332° |
| 2026-05-08 07:49 | 47.08894 | 4.41764 | 36060 ft | 441 kts | 332° |
| 2026-05-08 07:49 | 47.14507 | 4.38079 | 36064 ft | 441 kts | 333° |
| 2026-05-08 07:50 | 47.20116 | 4.34388 | 36064 ft | 441 kts | 333° |
| 2026-05-08 07:50 | 47.24781 | 4.31301 | 36065 ft | 442 kts | 333° |
| 2026-05-08 07:51 | 47.30384 | 4.27600 | 36065 ft | 442 kts | 333° |
| 2026-05-08 07:51 | 47.36003 | 4.23882 | 36071 ft | 442 kts | 333° |
| 2026-05-08 07:52 | 47.41615 | 4.20163 | 36070 ft | 442 kts | 333° |
| 2026-05-08 07:52 | 47.47223 | 4.16435 | 36069 ft | 442 kts | 333° |
| 2026-05-08 07:53 | 47.52834 | 4.12687 | 36074 ft | 442 kts | 333° |
| 2026-05-08 07:53 | 47.58449 | 4.08929 | 36074 ft | 442 kts | 333° |
| 2026-05-08 07:54 | 47.64034 | 4.05194 | 36075 ft | 443 kts | 333° |
| 2026-05-08 07:54 | 47.69657 | 4.01433 | 36078 ft | 443 kts | 333° |
| 2026-05-08 07:55 | 47.75270 | 3.97667 | 36080 ft | 443 kts | 333° |
| 2026-05-08 07:55 | 47.80875 | 3.93891 | 36080 ft | 442 kts | 333° |
| 2026-05-08 07:56 | 47.86482 | 3.90106 | 36081 ft | 442 kts | 333° |
| 2026-05-08 07:56 | 47.92088 | 3.86314 | 36083 ft | 442 kts | 333° |
| 2026-05-08 07:57 | 47.97691 | 3.82517 | 36088 ft | 442 kts | 333° |
| 2026-05-08 07:57 | 48.03303 | 3.78706 | 36089 ft | 442 kts | 333° |
| 2026-05-08 07:58 | 48.08906 | 3.74877 | 36089 ft | 442 kts | 333° |
| 2026-05-08 07:58 | 48.14394 | 3.70868 | 36091 ft | 439 kts | 324° |
| 2026-05-08 07:59 | 48.18963 | 3.64961 | 36087 ft | 432 kts | 309° |
| 2026-05-08 07:59 | 48.23045 | 3.58309 | 36088 ft | 433 kts | 310° |
| 2026-05-08 08:00 | 48.27134 | 3.51668 | 36087 ft | 433 kts | 310° |
| 2026-05-08 08:00 | 48.31223 | 3.45020 | 36090 ft | 433 kts | 310° |
| 2026-05-08 08:01 | 48.35306 | 3.38341 | 36092 ft | 433 kts | 309° |
| 2026-05-08 08:01 | 48.39453 | 3.31772 | 36092 ft | 435 kts | 316° |
| 2026-05-08 08:02 | 48.44618 | 3.26964 | 36095 ft | 441 kts | 335° |
| 2026-05-08 08:02 | 48.50288 | 3.23378 | 36094 ft | 441 kts | 334° |
| 2026-05-08 08:03 | 48.55901 | 3.19786 | 36093 ft | 441 kts | 334° |
| 2026-05-08 08:03 | 48.61585 | 3.16143 | 36093 ft | 441 kts | 334° |
| 2026-05-08 08:04 | 48.67205 | 3.12524 | 36093 ft | 441 kts | 334° |
| 2026-05-08 08:04 | 48.72862 | 3.08879 | 36094 ft | 441 kts | 334° |
| 2026-05-08 08:05 | 48.78517 | 3.05234 | 36094 ft | 441 kts | 334° |
| 2026-05-08 08:05 | 48.84150 | 3.01566 | 36091 ft | 440 kts | 331° |
| 2026-05-08 08:06 | 48.89458 | 2.97038 | 36092 ft | 438 kts | 327° |
| 2026-05-08 08:06 | 48.94745 | 2.92408 | 36092 ft | 438 kts | 327° |
| 2026-05-08 08:07 | 49.00022 | 2.87789 | 36094 ft | 438 kts | 327° |
| 2026-05-08 08:07 | 49.05309 | 2.83146 | 36092 ft | 438 kts | 327° |
| 2026-05-08 08:08 | 49.10547 | 2.78526 | 36091 ft | 437 kts | 327° |
| 2026-05-08 08:08 | 49.15835 | 2.73867 | 36093 ft | 437 kts | 327° |
| 2026-05-08 08:09 | 49.21111 | 2.69202 | 36092 ft | 437 kts | 327° |
| 2026-05-08 08:09 | 49.26372 | 2.64525 | 36092 ft | 437 kts | 327° |
| 2026-05-08 08:10 | 49.31633 | 2.59844 | 36093 ft | 437 kts | 327° |
| 2026-05-08 08:10 | 49.36807 | 2.55228 | 36089 ft | 437 kts | 327° |
| 2026-05-08 08:11 | 49.42070 | 2.50518 | 36089 ft | 438 kts | 327° |
| 2026-05-08 08:11 | 49.47336 | 2.45799 | 36091 ft | 438 kts | 327° |
| 2026-05-08 08:12 | 49.52232 | 2.40340 | 36088 ft | 432 kts | 311° |
| 2026-05-08 08:12 | 49.56097 | 2.33309 | 36087 ft | 429 kts | 306° |
| 2026-05-08 08:13 | 49.59841 | 2.26212 | 36088 ft | 430 kts | 306° |
| 2026-05-08 08:13 | 49.63608 | 2.19058 | 36086 ft | 430 kts | 306° |
| 2026-05-08 08:14 | 49.67373 | 2.11881 | 36089 ft | 430 kts | 306° |
| 2026-05-08 08:14 | 49.71124 | 2.04698 | 36089 ft | 430 kts | 306° |
| 2026-05-08 08:15 | 49.74882 | 1.97489 | 36087 ft | 430 kts | 306° |
| 2026-05-08 08:15 | 49.78639 | 1.90275 | 36090 ft | 430 kts | 306° |
| 2026-05-08 08:16 | 49.82389 | 1.83057 | 36094 ft | 430 kts | 306° |
| 2026-05-08 08:16 | 49.86130 | 1.75833 | 36094 ft | 430 kts | 306° |
| 2026-05-08 08:17 | 49.89870 | 1.68572 | 36099 ft | 430 kts | 306° |
| 2026-05-08 08:17 | 49.93584 | 1.61352 | 36104 ft | 430 kts | 306° |
| 2026-05-08 08:18 | 49.97314 | 1.54086 | 36107 ft | 430 kts | 306° |
| 2026-05-08 08:18 | 50.01600 | 1.47557 | 36108 ft | 433 kts | 316° |
| 2026-05-08 08:19 | 50.06137 | 1.41403 | 36110 ft | 433 kts | 316° |
| 2026-05-08 08:19 | 50.10674 | 1.35232 | 36110 ft | 433 kts | 316° |
| 2026-05-08 08:20 | 50.15203 | 1.29044 | 36110 ft | 433 kts | 316° |
| 2026-05-08 08:20 | 50.19736 | 1.22826 | 36111 ft | 433 kts | 316° |
| 2026-05-08 08:21 | 50.24258 | 1.16621 | 36110 ft | 433 kts | 316° |
| 2026-05-08 08:21 | 50.28753 | 1.10435 | 36115 ft | 433 kts | 316° |
| 2026-05-08 08:22 | 50.33276 | 1.04186 | 36114 ft | 433 kts | 316° |
| 2026-05-08 08:22 | 50.37796 | 0.97932 | 36105 ft | 435 kts | 316° |
| 2026-05-08 08:23 | 50.42341 | 0.91628 | 36099 ft | 436 kts | 316° |
| 2026-05-08 08:23 | 50.46901 | 0.85313 | 36098 ft | 437 kts | 316° |
| 2026-05-08 08:24 | 50.51549 | 0.79169 | 36101 ft | 437 kts | 317° |
| 2026-05-08 08:24 | 50.56226 | 0.73039 | 36104 ft | 438 kts | 317° |
| 2026-05-08 08:25 | 50.60879 | 0.66854 | 36110 ft | 438 kts | 317° |
| 2026-05-08 08:25 | 50.65523 | 0.60628 | 36113 ft | 438 kts | 317° |
| 2026-05-08 08:26 | 50.70169 | 0.54382 | 35115 ft | 442 kts | 317° |
| 2026-05-08 08:26 | 50.72506 | 0.51237 | 33992 ft | 442 kts | 317° |
| 2026-05-08 08:26 | 50.74837 | 0.48100 | 33034 ft | 436 kts | 317° |
| 2026-05-08 08:26 | 50.77128 | 0.45017 | 32133 ft | 430 kts | 317° |